Time;durP1;ratioP1;P1;durP2;ratioP2;P2;SDS_P1;SDS_P2;PMS_P1;PMS_P2;Temp;Humidity;BMP_temperature;BMP_pressure;BME280_temperature;BME280_humidity;BME280_pressure;Samples;Min_cycle;Max_cycle;Signal;HPM_P1;HPM_P2
2021/09/19 00:00:09;;;;;;;;;;;;;;;15.51;100.00;99024.03;5083718;28;19969;-63
2021/09/19 00:02:34;;;;;;;;;;;;;;;15.69;100.00;99020.47;5083469;28;20289;-64
2021/09/19 00:05:00;;;;;;;;;;;;;;;16.31;100.00;99018.88;5086989;28;20010;-62
2021/09/19 00:07:25;;;;;;;;;;;;;;;16.86;100.00;99014.13;5064198;28;20370;-64
2021/09/19 00:09:50;;;;;;;;;;;;;;;17.02;100.00;99012.31;5057633;28;19913;-64
2021/09/19 00:12:16;;;;;;;;;;;;;;;16.52;100.00;99010.81;5069707;28;19917;-64
2021/09/19 00:14:42;;;;;;;;;;;;;;;16.90;100.00;99006.06;5058277;28;20386;-65
2021/09/19 00:17:07;;;;;;;;;;;;;;;16.60;100.00;98998.19;5058525;28;19916;-64
2021/09/19 00:19:32;;;;;;;;;;;;;;;16.86;100.00;99001.13;5064457;28;19966;-64
2021/09/19 00:21:58;;;;;;;;;;;;;;;16.19;100.00;99001.34;5063409;28;19929;-64
2021/09/19 00:24:23;;;;;;;;;;;;;;;16.15;100.00;99010.25;5060992;28;20058;-64
2021/09/19 00:26:49;;;;;;;;;;;;;;;16.06;100.00;99003.81;5080237;28;20455;-66
2021/09/19 00:29:15;;;;;;;;;;;;;;;16.38;100.00;99000.34;5060997;28;19997;-64
2021/09/19 00:31:40;;;;;;;;;;;;;;;16.65;100.00;99001.41;5062479;28;20275;-62
2021/09/19 00:34:06;;;;;;;;;;;;;;;16.54;100.00;99003.75;5065099;28;19992;-64
2021/09/19 00:36:31;;;;;;;;;;;;;;;16.60;100.00;99005.16;5070730;28;19912;-64
2021/09/19 00:38:56;;;;;;;;;;;;;;;16.34;100.00;98998.84;5059127;28;19912;-64
2021/09/19 00:41:22;;;;;;;;;;;;;;;16.09;100.00;98997.59;5050432;28;19917;-62
2021/09/19 00:43:47;;;;;;;;;;;;;;;16.34;100.00;98991.06;5063224;28;20409;-66
2021/09/19 00:46:13;;;;;;;;;;;;;;;16.01;100.00;98994.56;5061462;28;19947;-64
2021/09/19 00:48:39;;;;;;;;;;;;;;;15.88;100.00;98994.41;5062312;28;20357;-63
2021/09/19 00:51:05;;;;;;;;;;;;;;;15.75;100.00;98998.56;5064027;28;19913;-64
2021/09/19 00:53:36;;;;;;;;;;;;;;;15.66;100.00;98999.88;5060316;28;20388;-62
2021/09/19 00:56:03;;;;;;;;;;;;;;;16.01;100.00;98995.44;5069830;28;19952;-64
2021/09/19 00:58:29;;;;;;;;;;;;;;;15.77;100.00;98996.75;5059931;28;19924;-63
2021/09/19 01:00:54;;;;;;;;;;;;;;;15.85;100.00;98995.41;5062556;28;19974;-64
2021/09/19 01:03:20;;;;;;;;;;;;;;;15.86;100.00;98991.88;5059742;28;19974;-64
2021/09/19 01:05:45;;;;;;;;;;;;;;;16.29;100.00;98991.31;5061248;28;19995;-63
2021/09/19 01:08:11;;;;;;;;;;;;;;;16.09;100.00;98993.22;5081332;28;19920;-64
2021/09/19 01:10:37;;;;;;;;;;;;;;;15.73;100.00;98993.47;5081716;28;19916;-62
2021/09/19 01:13:02;;;;;;;;;;;;;;;15.34;100.00;98994.59;5066168;28;19935;-62
2021/09/19 01:15:28;;;;;;;;;;;;;;;14.88;100.00;99002.13;5078801;28;19959;-62
2021/09/19 01:17:55;;;;;;;;;;;;;;;14.55;100.00;99004.59;5079986;28;19912;-62
2021/09/19 01:20:20;;;;;;;;;;;;;;;14.61;100.00;99012.09;5081071;28;19982;-62
2021/09/19 01:22:57;;;;;;;;;;;;;;;14.53;100.00;99006.38;5083258;28;20573;-62
2021/09/19 01:25:23;;;;;;;;;;;;;;;14.51;100.00;99011.66;5069622;28;19963;-63
2021/09/19 01:27:49;;;;;;;;;;;;;;;14.90;100.00;99008.06;5080664;28;19963;-64
2021/09/19 01:30:14;;;;;;;;;;;;;;;14.69;100.00;99006.50;5083711;28;19916;-62
2021/09/19 01:33:05;;;;;;;;;;;;;;;15.01;100.00;99005.78;5074169;28;20722;-62
2021/09/19 01:35:30;;;;;;;;;;;;;;;15.41;100.00;99003.75;5078644;28;20061;-62
2021/09/19 01:37:56;;;;;;;;;;;;;;;15.51;100.00;99001.53;5080512;28;20425;-63
2021/09/19 01:40:22;;;;;;;;;;;;;;;15.71;100.00;98990.09;5080916;28;19923;-62
2021/09/19 01:42:47;;;;;;;;;;;;;;;15.97;100.00;98982.69;5080533;28;20373;-63
2021/09/19 01:45:12;;;;;;;;;;;;;;;15.91;100.00;98977.81;5080210;28;19931;-65
2021/09/19 01:47:38;;;;;;;;;;;;;;;14.58;100.00;98992.34;5077574;28;19964;-66
2021/09/19 01:50:04;;;;;;;;;;;;;;;14.14;100.00;98995.28;5087869;28;19920;-63
2021/09/19 01:52:30;;;;;;;;;;;;;;;14.18;100.00;98991.59;5084294;28;19974;-62
2021/09/19 01:54:56;;;;;;;;;;;;;;;14.50;100.00;98985.81;5082424;28;19975;-64
2021/09/19 01:57:22;;;;;;;;;;;;;;;14.83;100.00;98983.38;5081511;28;19947;-65
2021/09/19 01:59:51;;;;;;;;;;;;;;;14.38;100.00;98982.91;5084422;28;20631;-62
2021/09/19 02:02:17;;;;;;;;;;;;;;;14.06;100.00;98976.66;5083028;28;19921;-63
2021/09/19 02:04:42;;;;;;;;;;;;;;;14.58;100.00;98968.19;5079618;28;19930;-63
2021/09/19 02:07:08;;;;;;;;;;;;;;;15.24;100.00;98967.47;5090440;28;19923;-65
2021/09/19 02:09:33;;;;;;;;;;;;;;;15.73;100.00;98961.47;5100910;28;20007;-64
2021/09/19 02:11:59;;;;;;;;;;;;;;;15.96;100.00;98960.22;5100912;28;20327;-64
2021/09/19 02:14:24;;;;;;;;;;;;;;;15.72;100.00;98963.22;5099020;28;19916;-63
2021/09/19 02:16:49;;;;;;;;;;;;;;;15.99;100.00;98965.25;5100689;28;19931;-63
2021/09/19 02:19:15;;;;;;;;;;;;;;;15.99;100.00;98954.88;5104254;28;20425;-63
2021/09/19 02:21:40;;;;;;;;;;;;;;;15.85;100.00;98958.19;5086860;28;19916;-63
2021/09/19 02:24:05;;;;;;;;;;;;;;;15.38;100.00;98959.78;5102997;28;20365;-62
2021/09/19 02:26:31;;;;;;;;;;;;;;;15.22;100.00;98958.91;5106490;28;19926;-62
2021/09/19 02:28:56;;;;;;;;;;;;;;;15.07;100.00;98963.13;5104152;28;19920;-62
2021/09/19 02:31:22;;;;;;;;;;;;;;;14.42;100.00;98957.69;5101664;28;20682;-64
2021/09/19 02:33:47;;;;;;;;;;;;;;;14.74;100.00;98952.72;5097559;28;20332;-64
2021/09/19 02:36:12;;;;;;;;;;;;;;;15.30;100.00;98946.38;5100279;28;19920;-63
2021/09/19 02:38:38;;;;;;;;;;;;;;;14.74;100.00;98943.19;5079257;28;19927;-65
2021/09/19 02:41:03;;;;;;;;;;;;;;;15.10;100.00;98950.03;5100540;28;19930;-64
2021/09/19 02:43:28;;;;;;;;;;;;;;;15.58;100.00;98950.13;5096692;28;20010;-62
2021/09/19 02:45:54;;;;;;;;;;;;;;;15.68;100.00;98951.31;5081472;28;19945;-62
2021/09/19 02:48:19;;;;;;;;;;;;;;;14.97;100.00;98952.38;5100727;28;19920;-63
2021/09/19 02:50:45;;;;;;;;;;;;;;;15.03;100.00;98939.13;5109378;28;19996;-62
2021/09/19 02:53:10;;;;;;;;;;;;;;;15.42;100.00;98940.56;5083330;28;20004;-63
2021/09/19 02:55:35;;;;;;;;;;;;;;;15.63;100.00;98938.56;5084800;28;19916;-63
2021/09/19 02:58:01;;;;;;;;;;;;;;;15.73;100.00;98941.53;5102035;28;19915;-62
2021/09/19 03:00:26;;;;;;;;;;;;;;;15.54;100.00;98940.81;5086541;28;19912;-63
2021/09/19 03:02:51;;;;;;;;;;;;;;;15.17;100.00;98945.34;5097869;28;19924;-63
2021/09/19 03:05:17;;;;;;;;;;;;;;;14.96;100.00;98948.13;5100714;28;19945;-63
2021/09/19 03:07:43;;;;;;;;;;;;;;;15.25;100.00;98951.81;5095724;27;20160;-66
2021/09/19 03:10:09;;;;;;;;;;;;;;;15.58;100.00;98940.56;5100334;28;19920;-63
2021/09/19 03:12:34;;;;;;;;;;;;;;;15.67;100.00;98944.44;5099028;28;19919;-64
2021/09/19 03:15:00;;;;;;;;;;;;;;;15.78;100.00;98941.28;5099766;28;19926;-63
2021/09/19 03:17:26;;;;;;;;;;;;;;;15.62;100.00;98946.44;5098024;28;19947;-63
2021/09/19 03:19:51;;;;;;;;;;;;;;;15.69;100.00;98942.56;5100183;28;19919;-63
2021/09/19 03:22:16;;;;;;;;;;;;;;;15.66;100.00;98945.34;5102983;28;20039;-62
2021/09/19 03:24:41;;;;;;;;;;;;;;;15.35;100.00;98934.00;5104051;28;19919;-62
2021/09/19 03:27:07;;;;;;;;;;;;;;;15.35;100.00;98943.53;5082595;28;19919;-62
2021/09/19 03:29:32;;;;;;;;;;;;;;;15.42;100.00;98939.72;5098121;28;19920;-63
2021/09/19 03:31:57;;;;;;;;;;;;;;;15.54;100.00;98946.00;5097838;28;19920;-62
2021/09/19 03:34:23;;;;;;;;;;;;;;;15.48;100.00;98940.22;5081065;28;19923;-63
2021/09/19 03:36:49;;;;;;;;;;;;;;;15.54;100.00;98943.41;5081473;28;19968;-63
2021/09/19 03:39:15;;;;;;;;;;;;;;;15.60;100.00;98936.16;5098550;28;20015;-64
2021/09/19 03:41:40;;;;;;;;;;;;;;;15.63;100.00;98942.94;5099478;28;20277;-64
2021/09/19 03:44:06;;;;;;;;;;;;;;;15.55;100.00;98938.13;5098364;28;19920;-62
2021/09/19 03:46:32;;;;;;;;;;;;;;;15.59;100.00;98936.22;5099684;28;19991;-62
2021/09/19 03:48:57;;;;;;;;;;;;;;;15.02;100.00;98932.25;5100253;28;19912;-64
2021/09/19 03:51:22;;;;;;;;;;;;;;;14.58;100.00;98932.72;5100145;28;19923;-62
2021/09/19 03:53:48;;;;;;;;;;;;;;;14.49;100.00;98932.31;5095382;28;19920;-62
2021/09/19 03:56:14;;;;;;;;;;;;;;;14.44;100.00;98933.38;5100404;28;19926;-61
2021/09/19 03:58:39;;;;;;;;;;;;;;;14.19;100.00;98930.31;5079549;28;20289;-63
2021/09/19 04:01:04;;;;;;;;;;;;;;;14.09;100.00;98935.06;5080965;28;19916;-63
2021/09/19 04:03:30;;;;;;;;;;;;;;;14.35;100.00;98935.59;5080784;28;19920;-62
2021/09/19 04:05:55;;;;;;;;;;;;;;;13.90;100.00;98929.09;5098319;28;20380;-62
2021/09/19 04:08:21;;;;;;;;;;;;;;;13.65;100.00;98940.56;5100002;28;19928;-63
2021/09/19 04:10:46;;;;;;;;;;;;;;;13.59;100.00;98946.00;5097478;28;19920;-62
2021/09/19 04:13:11;;;;;;;;;;;;;;;13.48;100.00;98943.06;5097303;28;19920;-64
2021/09/19 04:15:37;;;;;;;;;;;;;;;13.69;100.00;98949.88;5100547;28;19946;-62
2021/09/19 04:18:02;;;;;;;;;;;;;;;13.58;100.00;98957.28;5092847;28;20471;-62
2021/09/19 04:20:28;;;;;;;;;;;;;;;13.78;100.00;98956.38;5099167;28;20402;-62
2021/09/19 04:22:53;;;;;;;;;;;;;;;13.32;100.00;98950.66;5095511;28;20370;-62
2021/09/19 04:25:18;;;;;;;;;;;;;;;13.47;100.00;98959.50;5103173;28;19943;-62
2021/09/19 04:27:43;;;;;;;;;;;;;;;13.63;100.00;98951.91;5097946;28;19919;-63
2021/09/19 04:30:09;;;;;;;;;;;;;;;13.30;100.00;98950.75;5102675;28;19916;-63
2021/09/19 04:32:36;;;;;;;;;;;;;;;13.45;100.00;98963.91;5090340;28;20304;-63
2021/09/19 04:35:01;;;;;;;;;;;;;;;13.52;100.00;98960.13;5099451;28;19976;-62
2021/09/19 04:37:27;;;;;;;;;;;;;;;13.55;100.00;98960.84;5099652;28;19915;-64
2021/09/19 04:39:52;;;;;;;;;;;;;;;14.18;100.00;98951.91;5086105;28;20285;-63
2021/09/19 04:42:18;;;;;;;;;;;;;;;13.79;100.00;98950.28;5109128;28;19947;-63
2021/09/19 04:44:43;;;;;;;;;;;;;;;13.63;100.00;98952.72;5099527;28;20365;-63
2021/09/19 04:47:09;;;;;;;;;;;;;;;13.37;100.00;98952.16;5099495;28;19919;-63
2021/09/19 04:49:34;;;;;;;;;;;;;;;13.14;100.00;98960.06;5081107;28;19923;-63
2021/09/19 04:52:00;;;;;;;;;;;;;;;13.38;100.00;98953.81;5099272;28;19928;-63
2021/09/19 04:54:25;;;;;;;;;;;;;;;13.70;100.00;98963.66;5098880;28;19919;-64
2021/09/19 04:56:51;;;;;;;;;;;;;;;14.51;100.00;98954.66;5101074;28;20385;-63
2021/09/19 04:59:16;;;;;;;;;;;;;;;14.47;100.00;98950.53;5098136;28;20340;-63
2021/09/19 05:01:41;;;;;;;;;;;;;;;14.38;100.00;98956.16;5101448;28;20465;-63
2021/09/19 05:04:07;;;;;;;;;;;;;;;14.42;100.00;98955.94;5096142;28;19923;-65
2021/09/19 05:06:32;;;;;;;;;;;;;;;14.69;100.00;98954.69;5095609;28;19927;-63
2021/09/19 05:08:57;;;;;;;;;;;;;;;14.66;100.00;98949.66;5099491;28;19916;-62
2021/09/19 05:11:23;;;;;;;;;;;;;;;14.10;100.00;98956.66;5100663;28;19912;-63
2021/09/19 05:13:48;;;;;;;;;;;;;;;14.36;100.00;98955.38;5085663;28;19977;-63
2021/09/19 05:16:13;;;;;;;;;;;;;;;14.91;100.00;98950.09;5096444;28;19928;-65
2021/09/19 05:18:39;;;;;;;;;;;;;;;14.86;100.00;98944.31;5097803;28;20308;-65
2021/09/19 05:21:04;;;;;;;;;;;;;;;14.67;100.00;98951.34;5097364;28;19934;-64
2021/09/19 05:23:30;;;;;;;;;;;;;;;14.46;100.00;98954.03;5096547;28;19998;-65
2021/09/19 05:25:55;;;;;;;;;;;;;;;14.40;100.00;98957.75;5079889;28;20393;-64
2021/09/19 05:28:21;;;;;;;;;;;;;;;14.09;100.00;98953.19;5096360;28;19926;-65
2021/09/19 05:30:46;;;;;;;;;;;;;;;14.26;100.00;98956.75;5098177;28;19920;-65
2021/09/19 05:33:11;;;;;;;;;;;;;;;14.94;100.00;98955.16;5078912;28;19924;-65
2021/09/19 05:35:37;;;;;;;;;;;;;;;14.41;100.00;98953.41;5095469;28;19941;-64
2021/09/19 05:38:06;;;;;;;;;;;;;;;14.48;100.00;98952.19;5098019;28;19916;-62
2021/09/19 05:40:31;;;;;;;;;;;;;;;14.73;100.00;98961.38;5104616;28;19919;-62
2021/09/19 05:42:56;;;;;;;;;;;;;;;14.70;100.00;98951.19;5106164;28;20270;-62
2021/09/19 05:45:22;;;;;;;;;;;;;;;15.13;100.00;98954.22;5109501;28;19918;-63
2021/09/19 05:47:47;;;;;;;;;;;;;;;14.90;100.00;98958.81;5101028;28;19927;-64
2021/09/19 05:50:12;;;;;;;;;;;;;;;15.08;100.00;98953.63;5096011;28;20019;-63
2021/09/19 05:52:38;;;;;;;;;;;;;;;15.06;100.00;98953.69;5078867;28;19915;-62
2021/09/19 05:55:03;;;;;;;;;;;;;;;15.31;100.00;98957.59;5096825;28;19915;-62
2021/09/19 05:57:29;;;;;;;;;;;;;;;14.94;100.00;98960.34;5095787;28;19924;-63
2021/09/19 05:59:54;;;;;;;;;;;;;;;15.43;100.00;98962.16;5095444;28;19974;-64
2021/09/19 06:02:19;;;;;;;;;;;;;;;15.29;100.00;98959.44;5096791;28;20266;-63
2021/09/19 06:04:45;;;;;;;;;;;;;;;15.40;100.00;98968.34;5094917;28;19926;-64
2021/09/19 06:07:10;;;;;;;;;;;;;;;15.53;100.00;98963.34;5096670;28;19966;-63
2021/09/19 06:09:35;;;;;;;;;;;;;;;15.68;100.00;98966.88;5078552;28;19928;-63
2021/09/19 06:12:01;;;;;;;;;;;;;;;15.79;100.00;98969.78;5098229;28;19974;-63
2021/09/19 06:14:26;;;;;;;;;;;;;;;15.70;100.00;98970.22;5097778;28;19915;-64
2021/09/19 06:16:51;;;;;;;;;;;;;;;15.13;100.00;98965.41;5093310;28;19927;-63
2021/09/19 06:19:16;;;;;;;;;;;;;;;15.11;100.00;98969.84;5099964;28;19968;-64
2021/09/19 06:21:42;;;;;;;;;;;;;;;15.32;100.00;98969.66;5080287;28;19920;-64
2021/09/19 06:24:07;;;;;;;;;;;;;;;15.20;100.00;98963.34;5096617;28;19916;-66
2021/09/19 06:26:33;;;;;;;;;;;;;;;15.65;100.00;98962.69;5099096;27;20006;-64
2021/09/19 06:28:58;;;;;;;;;;;;;;;15.73;100.00;98962.28;5091606;27;19924;-62
2021/09/19 06:31:23;;;;;;;;;;;;;;;15.63;100.00;98969.72;5081151;28;20038;-62
2021/09/19 06:33:49;;;;;;;;;;;;;;;15.87;100.00;98969.34;5095751;28;20950;-64
2021/09/19 06:36:14;;;;;;;;;;;;;;;15.86;100.00;98960.72;5096867;28;20361;-64
2021/09/19 06:38:39;;;;;;;;;;;;;;;15.86;100.00;98965.09;5100281;28;19919;-64
2021/09/19 06:41:05;;;;;;;;;;;;;;;15.89;100.00;98965.75;5065567;28;19924;-64
2021/09/19 06:43:30;;;;;;;;;;;;;;;16.11;100.00;98967.19;5064562;28;19981;-62
2021/09/19 06:45:55;;;;;;;;;;;;;;;15.89;100.00;98967.50;5083039;28;19951;-62
2021/09/19 06:48:21;;;;;;;;;;;;;;;16.50;100.00;98958.91;5079145;28;20022;-62
2021/09/19 06:50:46;;;;;;;;;;;;;;;16.45;100.00;98962.69;5082784;28;20373;-63
2021/09/19 06:53:11;;;;;;;;;;;;;;;16.14;100.00;98960.97;5099732;28;19916;-63
2021/09/19 06:55:37;;;;;;;;;;;;;;;16.58;100.00;98963.69;5106292;28;20400;-64
2021/09/19 06:58:02;;;;;;;;;;;;;;;16.99;100.00;98963.06;5101830;28;19919;-64
2021/09/19 07:00:27;;;;;;;;;;;;;;;16.35;100.00;98971.91;5093135;28;19912;-64
2021/09/19 07:02:52;;;;;;;;;;;;;;;16.39;100.00;98979.47;5098156;28;20428;-64
2021/09/19 07:05:19;;;;;;;;;;;;;;;16.36;100.00;98974.44;5083121;28;19924;-62
2021/09/19 07:07:44;;;;;;;;;;;;;;;16.67;100.00;98965.75;5100940;28;20457;-64
2021/09/19 07:10:10;;;;;;;;;;;;;;;16.60;100.00;98977.41;5082694;28;19941;-62
2021/09/19 07:12:35;;;;;;;;;;;;;;;16.26;100.00;98979.31;5083462;28;19911;-62
2021/09/19 07:15:00;;;;;;;;;;;;;;;16.27;100.00;98974.97;5102700;28;19920;-62
2021/09/19 07:17:26;;;;;;;;;;;;;;;16.63;100.00;98972.03;5093050;28;19985;-63
2021/09/19 07:19:51;;;;;;;;;;;;;;;16.88;100.00;98971.50;5060845;28;19912;-64
2021/09/19 07:22:16;;;;;;;;;;;;;;;16.34;100.00;98970.25;5082225;28;20385;-65
2021/09/19 07:24:42;;;;;;;;;;;;;;;16.40;100.00;98975.09;5081275;28;19923;-64
2021/09/19 07:27:07;;;;;;;;;;;;;;;15.94;100.00;98978.47;5083301;28;19976;-63
2021/09/19 07:29:33;;;;;;;;;;;;;;;16.22;100.00;98985.59;5105574;28;20305;-64
2021/09/19 07:32:01;;;;;;;;;;;;;;;15.99;100.00;98986.88;5078908;28;20391;-65
2021/09/19 07:34:26;;;;;;;;;;;;;;;16.68;100.00;98987.38;5101495;28;19932;-63
2021/09/19 07:36:52;;;;;;;;;;;;;;;16.31;100.00;98976.47;5098942;28;19927;-65
2021/09/19 07:39:18;;;;;;;;;;;;;;;16.62;100.00;98980.75;5080896;28;19922;-64
2021/09/19 07:41:43;;;;;;;;;;;;;;;17.29;100.00;98975.19;5081724;28;20003;-64
2021/09/19 07:44:09;;;;;;;;;;;;;;;17.08;100.00;98983.34;5092913;28;19995;-64
2021/09/19 07:46:34;;;;;;;;;;;;;;;16.93;100.00;98990.25;5081520;28;20392;-65
2021/09/19 07:49:00;;;;;;;;;;;;;;;16.47;100.00;98994.66;5100149;28;19922;-65
2021/09/19 07:51:25;;;;;;;;;;;;;;;17.20;100.00;98991.34;5099371;28;20035;-65
2021/09/19 07:53:51;;;;;;;;;;;;;;;17.52;100.00;98981.59;5082169;28;20028;-64
2021/09/19 07:56:16;;;;;;;;;;;;;;;17.30;100.00;98976.84;5079429;28;20935;-64
2021/09/19 07:58:41;;;;;;;;;;;;;;;17.37;100.00;98983.34;5066212;28;19919;-65
2021/09/19 08:01:07;;;;;;;;;;;;;;;17.43;100.00;98977.78;5065955;28;20714;-62
2021/09/19 08:03:32;;;;;;;;;;;;;;;17.48;100.00;98975.72;5099316;28;19922;-65
2021/09/19 08:05:58;;;;;;;;;;;;;;;16.99;100.00;98972.63;5084994;28;19966;-64
2021/09/19 08:08:23;;;;;;;;;;;;;;;16.91;100.00;98965.28;5093192;28;19916;-64
2021/09/19 08:10:49;;;;;;;;;;;;;;;16.84;100.00;98975.19;5099720;28;19912;-64
2021/09/19 08:13:14;;;;;;;;;;;;;;;16.95;100.00;98977.19;5083924;28;19919;-65
2021/09/19 08:15:39;;;;;;;;;;;;;;;16.72;100.00;98976.72;5086429;28;20440;-64
2021/09/19 08:18:05;;;;;;;;;;;;;;;16.56;100.00;98978.53;5085441;28;19915;-63
2021/09/19 08:20:31;;;;;;;;;;;;;;;17.37;100.00;98977.31;5082852;28;20328;-63
2021/09/19 08:22:57;;;;;;;;;;;;;;;16.71;100.00;98975.03;5064282;28;20327;-62
2021/09/19 08:25:25;;;;;;;;;;;;;;;16.75;100.00;98985.28;5076406;28;19930;-61
2021/09/19 08:27:51;;;;;;;;;;;;;;;17.10;100.00;98981.47;5081029;28;20436;-64
2021/09/19 08:30:17;;;;;;;;;;;;;;;16.87;100.00;98988.00;5082596;28;19916;-63
2021/09/19 08:32:43;;;;;;;;;;;;;;;17.26;100.00;98990.97;5081977;28;19934;-63
2021/09/19 08:35:09;;;;;;;;;;;;;;;17.26;100.00;98994.41;5083387;28;19975;-64
2021/09/19 08:37:35;;;;;;;;;;;;;;;16.67;100.00;99001.28;5083126;28;19919;-63
2021/09/19 08:43:04;;;;;;;;;;;;;;;17.43;100.00;99013.41;5091876;28;19926;-64
2021/09/19 08:45:30;;;;;;;;;;;;;;;17.42;100.00;99022.94;5059693;28;19916;-63
2021/09/19 08:47:55;;;;;;;;;;;;;;;17.27;100.00;99021.28;5087739;28;19920;-63
2021/09/19 08:50:21;;;;;;;;;;;;;;;17.31;100.00;99018.41;5094853;28;19923;-64
2021/09/19 08:52:47;;;;;;;;;;;;;;;17.67;100.00;99026.69;5094296;28;20010;-66
2021/09/19 08:55:12;;;;;;;;;;;;;;;17.97;100.00;99022.25;5074504;28;20006;-66
2021/09/19 08:57:38;;;;;;;;;;;;;;;18.41;100.00;99014.34;5093530;28;19931;-67
2021/09/19 09:00:11;;;;;;;;;;;;;;;17.55;100.00;99023.91;5090384;28;20605;-68
2021/09/19 09:02:54;;;;;;;;;;;;;;;17.12;100.00;99025.63;5087999;28;19923;-65
2021/09/19 09:05:28;;;;;;;;;;;;;;;17.44;100.00;99031.50;5075369;28;19919;-65
2021/09/19 09:07:55;;;;;;;;;;;;;;;17.75;100.00;99034.88;5060027;28;19930;-63
2021/09/19 09:10:31;;;;;;;;;;;;;;;17.30;100.00;99029.72;5079599;28;20042;-67
2021/09/19 09:13:00;;;;;;;;;;;;;;;17.62;100.00;99031.34;5072563;28;19931;-66
2021/09/19 09:15:34;;;;;;;;;;;;;;;17.61;100.00;99033.13;5076063;28;20026;-67
2021/09/19 09:18:04;;;;;;;;;;;;;;;17.78;100.00;99030.31;5070942;28;19974;-66
2021/09/19 09:20:44;;;;;;;;;;;;;;;17.66;100.00;99027.63;5094266;28;19916;-66
2021/09/19 09:23:19;;;;;;;;;;;;;;;18.04;100.00;99032.28;5076594;28;19924;-65
2021/09/19 09:25:45;;;;;;;;;;;;;;;17.88;100.00;99030.63;5099480;28;19918;-65
2021/09/19 09:28:10;;;;;;;;;;;;;;;17.76;100.00;99041.75;5103628;28;20369;-65
2021/09/19 09:30:36;;;;;;;;;;;;;;;18.06;100.00;99039.06;5101440;28;19936;-65
2021/09/19 09:33:02;;;;;;;;;;;;;;;18.05;100.00;99037.41;5080226;28;19936;-65
2021/09/19 09:35:32;;;;;;;;;;;;;;;17.74;100.00;99041.00;5099625;28;19931;-65
2021/09/19 09:37:57;;;;;;;;;;;;;;;18.44;100.00;99032.38;5098090;28;19955;-63
2021/09/19 09:40:30;;;;;;;;;;;;;;;18.59;100.00;99045.28;5099059;28;20356;-63
2021/09/19 09:43:03;;;;;;;;;;;;;;;18.86;100.00;99043.59;5081863;28;19923;-63
2021/09/19 09:45:30;;;;;;;;;;;;;;;18.50;100.00;99038.03;5098194;28;19919;-65
2021/09/19 09:47:55;;;;;;;;;;;;;;;18.55;100.00;99046.41;5081963;28;19999;-63
2021/09/19 09:50:25;;;;;;;;;;;;;;;18.59;100.00;99037.44;5072948;28;19951;-63
2021/09/19 09:52:50;;;;;;;;;;;;;;;18.66;100.00;99042.28;5101859;28;19919;-63
2021/09/19 09:55:15;;;;;;;;;;;;;;;18.37;100.00;99042.34;5084628;28;19916;-63
2021/09/19 09:57:41;;;;;;;;;;;;;;;18.20;100.00;99043.44;5104063;28;19961;-63
2021/09/19 10:00:10;;;;;;;;;;;;;;;18.29;100.00;99036.78;5100028;28;19916;-63
2021/09/19 10:02:39;;;;;;;;;;;;;;;18.62;100.00;99039.03;5105437;28;19967;-63
2021/09/19 10:05:05;;;;;;;;;;;;;;;18.31;100.00;99038.34;5101461;28;20818;-65
2021/09/19 10:07:30;;;;;;;;;;;;;;;18.71;100.00;99046.25;5100763;28;19953;-63
2021/09/19 10:09:55;;;;;;;;;;;;;;;18.59;100.00;99053.09;5099117;28;19915;-63
2021/09/19 10:12:21;;;;;;;;;;;;;;;18.49;100.00;99051.16;5097028;28;19923;-63
2021/09/19 10:14:47;;;;;;;;;;;;;;;18.35;100.00;99055.47;5099210;28;19916;-63
2021/09/19 10:17:12;;;;;;;;;;;;;;;19.10;100.00;99052.44;5096826;28;19916;-63
2021/09/19 10:19:38;;;;;;;;;;;;;;;18.32;100.00;99053.09;5100375;28;19985;-65
2021/09/19 10:22:03;;;;;;;;;;;;;;;18.61;100.00;99047.78;5068451;28;20006;-65
2021/09/19 10:24:28;;;;;;;;;;;;;;;18.50;100.00;99056.28;5101502;28;19916;-65
2021/09/19 10:26:55;;;;;;;;;;;;;;;18.04;100.00;99050.50;5086109;28;20006;-65
2021/09/19 10:29:21;;;;;;;;;;;;;;;17.73;100.00;99050.59;5100085;28;19919;-65
2021/09/19 10:31:47;;;;;;;;;;;;;;;18.31;100.00;99046.19;5103945;28;19915;-63
2021/09/19 10:34:17;;;;;;;;;;;;;;;18.46;100.00;99046.16;5099938;28;20327;-65
2021/09/19 10:36:45;;;;;;;;;;;;;;;17.88;100.00;99045.41;5067194;28;20010;-63
2021/09/19 10:39:21;;;;;;;;;;;;;;;17.84;100.00;99042.16;5099659;28;19980;-65
2021/09/19 10:42:15;;;;;;;;;;;;;;;18.41;100.00;99033.41;5079720;28;19920;-63
2021/09/19 10:44:43;;;;;;;;;;;;;;;17.78;100.00;99037.28;5088449;28;19916;-65
2021/09/19 10:47:10;;;;;;;;;;;;;;;18.24;100.00;99029.25;5102150;28;19919;-65
2021/09/19 10:49:35;;;;;;;;;;;;;;;18.10;100.00;99034.50;5082171;28;19999;-65
2021/09/19 10:52:00;;;;;;;;;;;;;;;17.85;100.00;99033.41;5080026;28;20015;-65
2021/09/19 10:54:45;;;;;;;;;;;;;;;18.38;100.00;99029.25;5096823;28;20023;-65
2021/09/19 10:57:32;;;;;;;;;;;;;;;18.65;100.00;99030.97;5095982;28;19915;-62
2021/09/19 11:00:16;;;;;;;;;;;;;;;18.70;100.00;99034.16;5081057;28;19927;-63
2021/09/19 11:02:42;;;;;;;;;;;;;;;18.94;100.00;99030.91;5097807;28;19932;-63
2021/09/19 11:05:22;;;;;;;;;;;;;;;18.25;100.00;99030.94;5066875;28;19943;-63
2021/09/19 11:07:48;;;;;;;;;;;;;;;18.95;100.00;99032.56;5093896;28;19924;-66
2021/09/19 11:10:14;;;;;;;;;;;;;;;18.25;100.00;99038.75;5099272;28;19951;-65
2021/09/19 11:12:40;;;;;;;;;;;;;;;18.06;100.00;99036.44;5079925;28;19912;-65
2021/09/19 11:15:06;;;;;;;;;;;;;;;18.69;100.00;99040.28;5091266;28;19923;-66
2021/09/19 11:17:33;;;;;;;;;;;;;;;18.90;100.00;99032.88;5102416;28;19916;-64
2021/09/19 11:20:13;;;;;;;;;;;;;;;18.55;100.00;99040.34;5096666;28;20369;-65
2021/09/19 11:22:49;;;;;;;;;;;;;;;18.81;100.00;99044.72;5079272;28;20353;-66
2021/09/19 11:25:16;;;;;;;;;;;;;;;19.01;100.00;99037.38;5087471;28;19934;-62
2021/09/19 11:27:43;;;;;;;;;;;;;;;19.53;100.00;99038.28;5096240;28;20642;-66
2021/09/19 11:30:09;;;;;;;;;;;;;;;19.43;100.00;99032.81;5093594;28;19999;-65
2021/09/19 11:32:37;;;;;;;;;;;;;;;18.67;100.00;99039.56;5095723;28;20011;-66
2021/09/19 11:35:03;;;;;;;;;;;;;;;19.18;100.00;99033.63;5092202;28;19952;-67
2021/09/19 11:37:29;;;;;;;;;;;;;;;18.53;100.00;99034.41;5096069;28;19970;-66
2021/09/19 11:39:54;;;;;;;;;;;;;;;18.45;100.00;99036.66;5083407;28;19939;-65
2021/09/19 11:42:20;;;;;;;;;;;;;;;18.37;100.00;99037.97;5103304;28;19915;-65
2021/09/19 11:44:49;;;;;;;;;;;;;;;18.53;99.09;99039.63;5083843;28;19911;-65
2021/09/19 11:47:15;;;;;;;;;;;;;;;18.53;100.00;99047.44;5082411;28;20705;-66
2021/09/19 11:49:41;;;;;;;;;;;;;;;19.13;100.00;99047.00;5083689;28;20281;-68
2021/09/19 11:52:07;;;;;;;;;;;;;;;19.35;100.00;99045.56;5070518;28;19930;-67
2021/09/19 11:54:33;;;;;;;;;;;;;;;18.61;100.00;99045.19;5083354;28;19947;-66
2021/09/19 11:56:58;;;;;;;;;;;;;;;19.23;100.00;99042.84;5085811;28;20359;-66
2021/09/19 11:59:24;;;;;;;;;;;;;;;18.97;100.00;99038.50;5103982;28;19938;-66
2021/09/19 12:01:49;;;;;;;;;;;;;;;19.06;100.00;99044.91;5087771;28;19969;-67
2021/09/19 12:07:17;;;;;;;;;;;;;;;18.18;100.00;99037.47;5094262;28;19942;-67
2021/09/19 12:09:52;;;;;;;;;;;;;;;18.50;100.00;99042.44;5097163;28;20460;-67
2021/09/19 12:12:18;;;;;;;;;;;;;;;19.02;100.00;99034.69;5095640;28;19938;-64
2021/09/19 12:14:46;;;;;;;;;;;;;;;19.34;100.00;99033.44;5076589;28;20287;-66
2021/09/19 12:17:12;;;;;;;;;;;;;;;18.75;100.00;99031.25;5096708;28;20368;-66
2021/09/19 12:19:38;;;;;;;;;;;;;;;18.58;100.00;99030.53;5098063;28;19928;-63
2021/09/19 12:22:19;;;;;;;;;;;;;;;18.57;100.00;99033.28;5083575;28;19919;-63
2021/09/19 12:24:45;;;;;;;;;;;;;;;19.07;100.00;99031.75;5095789;28;19958;-63
2021/09/19 12:27:13;;;;;;;;;;;;;;;18.62;100.00;99035.59;5098638;28;20385;-64
2021/09/19 12:29:42;;;;;;;;;;;;;;;18.17;100.00;99035.78;5105068;28;19916;-64
2021/09/19 12:32:08;;;;;;;;;;;;;;;18.59;100.00;99031.41;5097916;28;19912;-65
2021/09/19 12:34:33;;;;;;;;;;;;;;;19.03;100.00;99030.28;5099017;28;19955;-66
2021/09/19 12:36:59;;;;;;;;;;;;;;;18.72;100.00;99027.03;5082416;28;20007;-66